createdAt,value
2023-01-13T00:01:16.331Z,18.75
2023-01-13T00:03:43.899Z,20.10
2023-01-13T00:06:18.656Z,18.02
2023-01-13T00:08:49.019Z,19.10
2023-01-13T00:11:16.056Z,19.38
2023-01-13T00:13:43.039Z,18.40
2023-01-13T00:16:15.680Z,20.33
2023-01-13T00:18:43.609Z,20.25
2023-01-13T00:21:30.412Z,20.42
2023-01-13T00:23:57.141Z,20.73
2023-01-13T00:26:26.333Z,19.95
2023-01-13T00:29:00.662Z,20.95
2023-01-13T00:31:28.766Z,21.35
2023-01-13T00:34:00.052Z,21.15
2023-01-13T00:36:28.159Z,20.98
2023-01-13T00:38:54.824Z,20.73
2023-01-13T00:41:23.399Z,20.17
2023-01-13T00:43:50.811Z,19.02
2023-01-13T00:46:20.313Z,18.73
2023-01-13T00:48:47.775Z,20.70
2023-01-13T00:51:20.088Z,19.73
2023-01-13T00:53:49.799Z,18.92
2023-01-13T00:56:39.275Z,18.58
2023-01-13T00:59:11.093Z,17.60
2023-01-13T01:01:38.727Z,18.77
2023-01-13T01:04:05.665Z,18.73
2023-01-13T01:06:32.422Z,18.20
2023-01-13T01:08:59.629Z,18.23
2023-01-13T01:11:29.166Z,17.30
2023-01-13T01:13:57.570Z,17.55
2023-01-13T01:16:30.613Z,16.92
2023-01-13T01:18:57.534Z,17.55
2023-01-13T01:21:26.236Z,16.77
2023-01-13T01:23:53.385Z,16.35
2023-01-13T01:26:22.778Z,16.40
2023-01-13T01:28:49.807Z,15.43
2023-01-13T01:31:23.352Z,15.10
2023-01-13T01:33:50.975Z,14.40
2023-01-13T01:36:19.774Z,14.75
2023-01-13T01:38:47.345Z,12.98
2023-01-13T01:41:22.804Z,12.77
2023-01-13T01:44:04.518Z,13.27
2023-01-13T01:46:34.144Z,12.90
2023-01-13T01:49:19.958Z,12.50
2023-01-13T01:51:54.606Z,13.32
2023-01-13T01:54:50.964Z,13.48
2023-01-13T01:57:23.403Z,13.63
2023-01-13T01:59:50.340Z,12.48
2023-01-13T02:02:17.865Z,13.07
2023-01-13T02:04:53.339Z,13.85
2023-01-13T02:07:25.452Z,12.90
2023-01-13T02:09:55.478Z,13.00
2023-01-13T02:12:32.583Z,13.18
2023-01-13T02:15:12.200Z,14.52
2023-01-13T02:18:18.184Z,13.55
2023-01-13T02:21:09.635Z,13.18
2023-01-13T02:24:03.162Z,13.43
2023-01-13T02:27:00.714Z,14.32
2023-01-13T02:29:52.278Z,14.43
2023-01-13T02:32:43.879Z,14.30
2023-01-13T02:35:26.371Z,14.13
2023-01-13T02:37:54.881Z,14.35
2023-01-13T02:40:34.780Z,14.73
2023-01-13T02:43:26.165Z,15.82
2023-01-13T02:45:58.990Z,17.17
2023-01-13T02:48:29.762Z,15.68
2023-01-13T02:51:19.179Z,15.80
2023-01-13T02:54:03.808Z,15.80
2023-01-13T02:56:34.556Z,14.23
2023-01-13T02:59:02.266Z,14.40
2023-01-13T03:01:29.042Z,14.20
2023-01-13T03:03:55.848Z,14.68
2023-01-13T03:06:47.571Z,14.80
2023-01-13T03:09:33.119Z,14.32
2023-01-13T03:12:21.277Z,14.50
2023-01-13T03:15:04.823Z,13.30
2023-01-13T03:17:50.189Z,14.10
2023-01-13T03:20:26.771Z,13.93
2023-01-13T03:23:09.439Z,14.00
2023-01-13T03:25:48.034Z,13.32
2023-01-13T03:28:25.990Z,14.63
2023-01-13T03:31:05.141Z,13.40
2023-01-13T03:33:37.558Z,15.52
2023-01-13T03:36:08.932Z,15.38
2023-01-13T03:38:46.717Z,14.82
2023-01-13T03:41:46.609Z,15.45
2023-01-13T03:44:24.333Z,17.65
2023-01-13T03:47:18.180Z,16.38
2023-01-13T03:49:44.808Z,17.33
2023-01-13T03:52:18.549Z,16.33
2023-01-13T03:54:53.631Z,15.88
2023-01-13T03:57:26.224Z,17.02
2023-01-13T03:59:56.513Z,17.08
2023-01-13T04:03:03.849Z,17.50
2023-01-13T04:05:31.625Z,16.73
2023-01-13T04:08:13.234Z,17.13
2023-01-13T04:10:52.969Z,15.93
2023-01-13T04:13:23.553Z,15.40
2023-01-13T04:15:50.828Z,14.77
2023-01-13T04:18:30.666Z,14.63
2023-01-13T04:20:59.511Z,16.05
2023-01-13T04:23:27.999Z,15.20
2023-01-13T04:25:55.370Z,14.90
2023-01-13T04:28:22.524Z,15.48
2023-01-13T04:30:49.588Z,16.60
2023-01-13T04:33:18.023Z,17.02
2023-01-13T04:35:46.195Z,17.48
2023-01-13T04:38:20.063Z,16.02
2023-01-13T04:40:47.055Z,16.67
2023-01-13T04:43:15.712Z,17.73
2023-01-13T04:45:43.358Z,17.27
2023-01-13T04:48:10.751Z,16.83
2023-01-13T04:50:37.375Z,17.63
2023-01-13T04:53:04.324Z,17.20
2023-01-13T04:55:31.887Z,17.55
2023-01-13T04:58:06.817Z,18.02
2023-01-13T05:00:33.881Z,17.55
2023-01-13T05:03:01.033Z,16.95
2023-01-13T05:05:29.485Z,17.27
2023-01-13T05:07:56.273Z,16.30
2023-01-13T05:10:24.076Z,17.25
2023-01-13T05:13:09.627Z,16.55
2023-01-13T05:15:54.944Z,16.27
2023-01-13T05:18:21.741Z,15.70
2023-01-13T05:20:49.576Z,14.77
2023-01-13T05:23:34.819Z,14.07
2023-01-13T05:26:01.556Z,14.02
2023-01-13T05:28:32.290Z,14.32
2023-01-13T05:30:59.595Z,14.38
2023-01-13T05:33:26.538Z,14.30
2023-01-13T05:35:53.126Z,13.90
2023-01-13T05:38:19.915Z,15.02
2023-01-13T05:41:05.198Z,15.25
2023-01-13T05:43:33.236Z,14.73
2023-01-13T05:46:02.461Z,13.77
2023-01-13T05:48:32.351Z,13.48
2023-01-13T05:50:59.478Z,14.13
2023-01-13T05:53:26.711Z,13.15
2023-01-13T05:55:53.581Z,14.50
2023-01-13T05:58:22.809Z,13.48
2023-01-13T06:00:50.250Z,14.10
2023-01-13T06:03:20.068Z,14.38
2023-01-13T06:05:48.189Z,13.48
2023-01-13T06:08:14.932Z,13.35
2023-01-13T06:10:41.497Z,13.82
2023-01-13T06:13:08.182Z,14.20
2023-01-13T06:15:35.080Z,13.90
2023-01-13T06:18:05.036Z,15.65
2023-01-13T06:20:32.588Z,15.35
2023-01-13T06:22:59.704Z,14.60
2023-01-13T06:25:50.959Z,15.57
2023-01-13T06:28:17.606Z,15.10
2023-01-13T06:30:50.955Z,13.75
2023-01-13T06:33:24.699Z,15.20
2023-01-13T06:36:00.988Z,15.40
2023-01-13T06:38:30.002Z,14.65
2023-01-13T06:40:56.682Z,14.63
2023-01-13T06:43:23.305Z,18.70
2023-01-13T06:45:53.462Z,18.42
2023-01-13T06:48:24.662Z,18.25
2023-01-13T06:50:51.389Z,17.95
2023-01-13T06:53:18.085Z,18.25
2023-01-13T06:55:44.759Z,18.85
2023-01-13T06:58:11.449Z,16.92
2023-01-13T07:00:38.624Z,17.90
2023-01-13T07:03:07.679Z,19.77
2023-01-13T07:05:34.511Z,18.15
2023-01-13T07:08:01.531Z,18.65
2023-01-13T07:10:28.379Z,19.45
2023-01-13T07:13:13.818Z,19.30
2023-01-13T07:15:40.611Z,19.05
2023-01-13T07:18:07.580Z,17.80
2023-01-13T07:20:34.391Z,19.83
2023-01-13T07:23:01.021Z,18.52
2023-01-13T07:25:28.026Z,18.85
2023-01-13T07:27:57.487Z,18.92
2023-01-13T07:30:24.116Z,18.92
2023-01-13T07:32:50.750Z,18.05
2023-01-13T07:35:22.048Z,20.58
2023-01-13T07:37:49.018Z,18.65
2023-01-13T07:40:15.760Z,19.48
2023-01-13T07:43:01.468Z,19.25
2023-01-13T07:45:28.494Z,18.98
2023-01-13T07:47:55.167Z,18.35
2023-01-13T07:50:23.861Z,20.23
2023-01-13T07:52:51.196Z,20.00
2023-01-13T07:55:17.857Z,20.13
2023-01-13T07:57:44.698Z,20.00
2023-01-13T08:00:12.977Z,21.23
2023-01-13T08:02:39.885Z,20.73
2023-01-13T08:05:13.890Z,20.45
2023-01-13T08:07:40.599Z,20.55
2023-01-13T08:10:07.750Z,22.40
2023-01-13T08:12:59.749Z,21.13
2023-01-13T08:15:32.684Z,21.77
2023-01-13T08:18:12.737Z,23.40
2023-01-13T08:20:39.553Z,24.10
2023-01-13T08:23:12.688Z,23.63
2023-01-13T08:25:39.436Z,22.08
2023-01-13T08:28:12.698Z,25.90
2023-01-13T08:30:39.721Z,27.77
2023-01-13T08:33:08.709Z,28.23
2023-01-13T08:35:46.666Z,32.13
2023-01-13T08:38:13.550Z,31.33
2023-01-13T08:40:40.675Z,28.27
2023-01-13T08:43:13.669Z,23.70
2023-01-13T08:45:46.947Z,24.42
2023-01-13T08:48:19.728Z,24.27
2023-01-13T08:50:46.448Z,23.67
2023-01-13T08:53:13.011Z,23.25
2023-01-13T08:55:46.653Z,21.73
2023-01-13T08:58:16.081Z,18.83
2023-01-13T09:00:43.339Z,20.45
2023-01-13T09:03:16.735Z,22.60
2023-01-13T09:05:43.514Z,19.17
2023-01-13T09:08:16.620Z,16.13
2023-01-13T09:10:43.441Z,16.63
2023-01-13T09:13:20.638Z,17.48
2023-01-13T09:15:56.882Z,17.05
2023-01-13T09:18:30.630Z,15.40
2023-01-13T09:21:10.015Z,15.57
2023-01-13T09:23:43.642Z,14.73
2023-01-13T09:26:12.120Z,15.85
2023-01-13T09:28:45.601Z,16.83
2023-01-13T09:31:12.355Z,16.58
2023-01-13T09:34:04.566Z,15.32
2023-01-13T09:36:37.783Z,15.15
2023-01-13T09:39:04.437Z,13.75
2023-01-13T09:41:59.682Z,13.38
2023-01-13T09:44:46.748Z,13.68
2023-01-13T09:47:42.783Z,14.23
2023-01-13T09:50:22.170Z,14.63
2023-01-13T09:52:55.881Z,15.35
2023-01-13T09:55:36.936Z,14.00
2023-01-13T09:58:24.817Z,15.30
2023-01-13T10:01:15.652Z,13.85
2023-01-13T10:03:42.799Z,14.27
2023-01-13T10:06:24.574Z,13.10
2023-01-13T10:08:55.662Z,12.95
2023-01-13T10:11:49.576Z,13.30
2023-01-13T10:14:19.300Z,12.90
2023-01-13T10:17:24.579Z,13.63
2023-01-13T10:20:12.317Z,11.13
2023-01-13T10:23:15.062Z,11.23
2023-01-13T10:25:54.858Z,12.73
2023-01-13T10:28:23.954Z,12.77
2023-01-13T10:30:57.630Z,12.82
2023-01-13T10:33:28.453Z,13.20
2023-01-13T10:36:19.683Z,12.35
2023-01-13T10:38:48.700Z,11.93
2023-01-13T10:41:15.457Z,11.80
2023-01-13T10:44:04.643Z,11.50
2023-01-13T10:46:35.340Z,11.98
2023-01-13T10:49:29.807Z,13.70
2023-01-13T10:52:03.623Z,14.43
2023-01-13T10:54:37.709Z,14.05
2023-01-13T10:57:22.881Z,14.30
2023-01-13T10:59:57.819Z,13.13
2023-01-13T11:02:37.586Z,13.02
2023-01-13T11:05:24.629Z,13.82
2023-01-13T11:08:01.528Z,11.90
2023-01-13T11:10:31.436Z,12.73
2023-01-13T11:13:18.755Z,11.23
2023-01-13T11:16:24.970Z,12.52
2023-01-13T11:19:14.776Z,11.35
2023-01-13T11:22:14.661Z,13.30
2023-01-13T11:25:01.565Z,11.98
2023-01-13T11:27:49.736Z,11.82
2023-01-13T11:30:46.539Z,11.38
2023-01-13T11:33:16.587Z,11.63
2023-01-13T11:36:00.458Z,11.20
2023-01-13T11:38:54.469Z,8.77
2023-01-13T11:41:49.561Z,9.13
2023-01-13T11:44:16.342Z,9.20
2023-01-13T11:46:49.591Z,8.80
2023-01-13T11:49:30.535Z,8.63
2023-01-13T11:52:30.485Z,6.95
2023-01-13T11:55:10.724Z,7.15
2023-01-13T11:57:52.418Z,6.78
2023-01-13T12:00:39.556Z,7.60
2023-01-13T12:03:35.822Z,8.55
2023-01-13T12:06:36.593Z,8.13
2023-01-13T12:09:51.552Z,8.15
2023-01-13T12:12:33.992Z,9.68
2023-01-13T12:15:19.475Z,9.15
2023-01-13T12:18:13.728Z,9.38
2023-01-13T12:20:46.548Z,9.75
2023-01-13T12:23:35.588Z,9.60
2023-01-13T12:26:13.764Z,10.55
2023-01-13T12:28:55.594Z,11.02
2023-01-13T12:31:23.666Z,10.45
2023-01-13T12:34:36.520Z,10.40
2023-01-13T12:37:17.386Z,10.02
2023-01-13T12:40:10.671Z,10.80
2023-01-13T12:43:28.447Z,9.90
2023-01-13T12:46:30.496Z,11.25
2023-01-13T12:49:04.640Z,9.80
2023-01-13T12:54:45.068Z,10.18
2023-01-13T12:57:29.604Z,11.20
2023-01-13T13:02:44.223Z,11.25
2023-01-13T13:05:22.830Z,10.88
2023-01-13T13:08:26.616Z,10.80
2023-01-13T13:11:05.263Z,10.70
2023-01-13T13:14:09.575Z,11.18
2023-01-13T13:17:07.368Z,9.97
2023-01-13T13:19:40.490Z,9.43
2023-01-13T13:22:13.258Z,8.18
2023-01-13T13:24:48.629Z,8.45
2023-01-13T13:27:29.449Z,8.15
2023-01-13T13:30:07.603Z,8.40
2023-01-13T13:32:58.544Z,8.15
2023-01-13T13:36:05.513Z,8.95
2023-01-13T13:39:21.452Z,8.27
2023-01-13T13:42:17.487Z,9.15
2023-01-13T13:45:07.237Z,9.23
2023-01-13T13:47:45.404Z,13.25
2023-01-13T13:50:27.365Z,11.63
2023-01-13T13:53:13.564Z,11.00
2023-01-13T13:55:58.359Z,9.68
2023-01-13T13:58:26.728Z,10.48
2023-01-13T14:01:01.456Z,9.52
2023-01-13T14:03:41.425Z,9.73
2023-01-13T14:06:21.691Z,10.52
2023-01-13T14:08:57.423Z,9.98
2023-01-13T14:11:32.578Z,10.30
2023-01-13T14:14:13.347Z,10.00
2023-01-13T14:16:47.301Z,10.75
2023-01-13T14:19:45.928Z,9.43
2023-01-13T14:22:23.340Z,10.02
2023-01-13T14:24:55.753Z,9.88
2023-01-13T14:27:30.243Z,10.07
2023-01-13T14:30:06.273Z,9.60
2023-01-13T14:32:36.577Z,9.65
2023-01-13T14:35:13.399Z,10.02
2023-01-13T14:37:42.823Z,9.60
2023-01-13T14:40:54.299Z,10.20
2023-01-13T14:43:31.193Z,8.70
2023-01-13T14:46:11.534Z,10.40
2023-01-13T14:48:46.238Z,9.30
2023-01-13T14:51:28.267Z,9.00
2023-01-13T14:53:55.608Z,11.25
2023-01-13T14:56:47.481Z,10.75
2023-01-13T14:59:51.896Z,10.38
2023-01-13T15:02:37.485Z,11.30
2023-01-13T15:05:19.421Z,14.73
2023-01-13T15:08:00.268Z,13.57
2023-01-13T15:10:30.607Z,11.50
2023-01-13T15:13:07.942Z,12.07
2023-01-13T15:15:55.276Z,11.65
2023-01-13T15:18:28.335Z,11.75
2023-01-13T15:21:02.163Z,11.65
2023-01-13T15:23:35.305Z,11.65
2023-01-13T15:26:08.241Z,12.68
2023-01-13T15:28:34.952Z,16.45
2023-01-13T15:31:04.041Z,15.43
2023-01-13T15:33:37.208Z,14.40
2023-01-13T15:36:05.870Z,14.77
2023-01-13T15:38:32.539Z,18.73
2023-01-13T15:41:06.242Z,18.73
2023-01-13T15:43:51.481Z,21.83
2023-01-13T15:46:44.379Z,19.88
2023-01-13T15:49:35.102Z,18.70
2023-01-13T15:52:22.263Z,19.42
2023-01-13T15:54:49.877Z,25.85
2023-01-13T15:57:32.304Z,20.42
2023-01-13T16:00:08.175Z,16.55
2023-01-13T16:02:34.935Z,17.48
2023-01-13T16:05:02.023Z,17.95
2023-01-13T16:07:35.259Z,16.15
2023-01-13T16:10:04.963Z,14.45
2023-01-13T16:12:39.207Z,14.68
2023-01-13T16:17:48.282Z,18.80
2023-01-13T16:20:18.629Z,22.65
2023-01-13T16:22:52.274Z,22.85
2023-01-13T16:25:21.719Z,21.02
2023-01-13T16:27:49.217Z,23.98
2023-01-13T16:30:36.329Z,19.35
2023-01-13T16:33:03.859Z,19.02
2023-01-13T16:35:32.284Z,20.35
2023-01-13T16:38:06.363Z,18.80
2023-01-13T16:40:43.248Z,19.42
2023-01-13T16:43:20.192Z,17.10
2023-01-13T16:45:46.969Z,18.30
2023-01-13T16:48:27.249Z,17.00
2023-01-13T16:50:54.253Z,30.17
2023-01-13T16:53:20.855Z,33.10
2023-01-13T16:55:54.323Z,29.13
2023-01-13T16:58:21.475Z,39.00
2023-01-13T17:00:55.304Z,34.40
2023-01-13T17:03:28.169Z,49.45
2023-01-13T17:05:54.807Z,56.63
2023-01-13T17:08:28.429Z,55.00
2023-01-13T17:11:02.279Z,38.53
2023-01-13T17:13:28.898Z,33.70
2023-01-13T17:16:09.272Z,41.05
2023-01-13T17:18:35.867Z,43.50
2023-01-13T17:21:02.723Z,42.83
2023-01-13T17:23:38.298Z,36.72
2023-01-13T17:26:05.539Z,44.08
2023-01-13T17:28:39.270Z,38.42
2023-01-13T17:31:05.981Z,31.52
2023-01-13T17:33:37.173Z,28.27
2023-01-13T17:36:11.222Z,26.23
2023-01-13T17:38:44.337Z,25.30
2023-01-13T17:41:11.001Z,21.95
2023-01-13T17:43:44.901Z,26.67
2023-01-13T17:46:13.016Z,19.70
2023-01-13T17:48:40.093Z,19.02
2023-01-13T17:51:26.834Z,17.25
2023-01-13T17:53:55.025Z,15.45
2023-01-13T17:56:28.075Z,32.58
2023-01-13T17:58:54.909Z,21.65
2023-01-13T18:01:29.129Z,23.83
2023-01-13T18:04:02.358Z,15.27
2023-01-13T18:06:29.361Z,18.33
2023-01-13T18:08:58.344Z,14.80
2023-01-13T18:11:32.195Z,19.92
2023-01-13T18:14:00.158Z,14.50
2023-01-13T18:16:44.625Z,14.48
2023-01-13T18:22:38.407Z,12.77
2023-01-13T18:25:31.050Z,13.48
2023-01-13T18:28:00.728Z,16.38
2023-01-13T18:30:34.112Z,19.30
2023-01-13T18:33:00.903Z,18.55
2023-01-13T18:35:27.638Z,14.90
2023-01-13T18:38:01.033Z,13.55
2023-01-13T18:40:27.734Z,12.57
2023-01-13T18:43:01.224Z,12.75
2023-01-13T18:45:30.831Z,12.52
2023-01-13T18:48:07.343Z,13.65
2023-01-13T18:50:45.106Z,12.48
2023-01-13T18:53:12.044Z,12.32
2023-01-13T18:55:38.798Z,13.45
2023-01-13T18:58:12.035Z,13.45
2023-01-13T19:00:38.803Z,17.33
2023-01-13T19:05:41.224Z,24.00
2023-01-13T19:08:14.005Z,24.67
2023-01-13T19:10:40.752Z,24.52
2023-01-13T19:13:07.538Z,22.85
2023-01-13T19:15:44.013Z,25.25
2023-01-13T19:18:24.087Z,31.30
2023-01-13T19:20:50.731Z,29.30
2023-01-13T19:23:17.906Z,25.08
2023-01-13T19:25:51.196Z,27.08
2023-01-13T19:28:24.004Z,22.80
2023-01-13T19:30:51.862Z,21.83
2023-01-13T19:33:25.160Z,22.10
2023-01-13T19:35:55.060Z,20.33
2023-01-13T19:38:22.420Z,19.77
2023-01-13T19:41:04.227Z,23.27
2023-01-13T19:43:56.979Z,20.20
2023-01-13T19:46:33.196Z,20.08
2023-01-13T19:49:05.965Z,18.33
2023-01-13T19:51:32.603Z,19.42
2023-01-13T19:54:08.373Z,21.92
2023-01-13T19:56:35.151Z,21.23
2023-01-13T19:59:08.181Z,23.58
2023-01-13T20:01:37.592Z,21.95
2023-01-13T20:04:05.749Z,18.40
2023-01-13T20:06:42.148Z,18.38
2023-01-13T20:09:08.829Z,18.52
2023-01-13T20:11:36.465Z,22.25
2023-01-13T20:14:10.221Z,26.05
2023-01-13T20:16:43.435Z,30.48
2023-01-13T20:19:17.099Z,36.63
2023-01-13T20:21:43.976Z,29.17
2023-01-13T20:24:24.079Z,34.90
2023-01-13T20:26:50.850Z,31.30
2023-01-13T20:29:23.954Z,21.63
2023-01-13T20:31:50.861Z,26.50
2023-01-13T20:34:20.868Z,22.63
2023-01-13T20:36:56.264Z,21.35
2023-01-13T20:39:26.325Z,17.27
2023-01-13T20:42:22.283Z,15.85
2023-01-13T20:44:49.622Z,13.02
2023-01-13T20:47:16.464Z,13.27
2023-01-13T20:49:50.235Z,12.77
2023-01-13T20:52:20.198Z,18.88
2023-01-13T20:54:53.138Z,18.80
2023-01-13T20:57:19.758Z,25.55
2023-01-13T20:59:46.605Z,26.63
2023-01-13T21:02:22.116Z,24.45
2023-01-13T21:04:49.099Z,19.58
2023-01-13T21:07:18.185Z,20.95
2023-01-13T21:09:50.994Z,14.18
2023-01-13T21:12:39.530Z,13.63
2023-01-13T21:15:28.984Z,12.13
2023-01-13T21:18:17.242Z,11.32
2023-01-13T21:20:58.037Z,16.45
2023-01-13T21:23:24.679Z,32.45
2023-01-13T21:26:05.020Z,25.08
2023-01-13T21:28:40.840Z,27.20
2023-01-13T21:31:16.107Z,23.77
2023-01-13T21:33:49.866Z,18.90
2023-01-13T21:36:30.012Z,20.25
2023-01-13T21:38:58.729Z,17.55
2023-01-13T21:41:52.200Z,12.88
2023-01-13T21:44:39.455Z,14.07
2023-01-13T21:47:40.129Z,16.30
2023-01-13T21:50:10.372Z,11.55
2023-01-13T21:52:37.743Z,10.57
2023-01-13T21:55:23.953Z,10.45
2023-01-13T21:58:15.136Z,14.18
2023-01-13T22:00:50.951Z,22.27
2023-01-13T22:03:20.534Z,28.38
2023-01-13T22:06:06.927Z,25.13
2023-01-13T22:08:35.751Z,15.95
2023-01-13T22:11:02.882Z,13.27
2023-01-13T22:13:54.902Z,12.98
2023-01-13T22:16:28.311Z,11.18
2023-01-13T22:19:03.977Z,12.40
2023-01-13T22:21:30.704Z,18.45
2023-01-13T22:24:03.774Z,21.70
2023-01-13T22:26:30.470Z,22.30
2023-01-13T22:29:04.777Z,17.70
2023-01-13T22:31:31.938Z,16.33
2023-01-13T22:34:04.803Z,21.38
2023-01-13T22:36:31.411Z,28.95
2023-01-13T22:39:00.286Z,30.10
2023-01-13T22:41:33.751Z,34.92
2023-01-13T22:44:00.430Z,42.40
2023-01-13T22:46:27.250Z,35.95
2023-01-13T22:49:02.774Z,30.35
2023-01-13T22:51:30.633Z,28.95
2023-01-13T22:54:03.740Z,31.88
2023-01-13T22:56:36.780Z,32.92
2023-01-13T22:59:05.005Z,32.85
2023-01-13T23:01:40.955Z,34.63
2023-01-13T23:04:14.860Z,30.48
2023-01-13T23:06:41.719Z,27.77
2023-01-13T23:09:16.808Z,29.25
2023-01-13T23:11:43.606Z,27.63
2023-01-13T23:14:12.494Z,24.92
2023-01-13T23:16:47.103Z,27.38
2023-01-13T23:19:22.932Z,24.30
2023-01-13T23:21:49.724Z,22.10
2023-01-13T23:24:16.686Z,21.05
2023-01-13T23:26:49.750Z,19.33
2023-01-13T23:29:22.970Z,20.33
2023-01-13T23:31:49.794Z,20.27
2023-01-13T23:34:22.777Z,18.08
2023-01-13T23:36:55.976Z,24.37
2023-01-13T23:39:30.732Z,23.10
2023-01-13T23:42:05.835Z,21.55
2023-01-13T23:44:38.691Z,17.83
2023-01-13T23:47:11.924Z,23.92
2023-01-13T23:49:45.722Z,27.67
2023-01-13T23:52:12.437Z,23.33
2023-01-13T23:54:45.717Z,24.02
2023-01-13T23:57:12.451Z,23.67
2023-01-13T23:59:45.670Z,23.02
